sensor_id;sensor_type;location;lat;lon;timestamp;P1;durP1;ratioP1;P2;durP2;ratioP2
16468;SDS011;8345;50.902;6.956;2023-05-10T00:02:25;8.10;;;7.50;;
16468;SDS011;8345;50.902;6.956;2023-05-10T00:04:52;8.03;;;7.33;;
16468;SDS011;8345;50.902;6.956;2023-05-10T00:07:19;8.13;;;7.43;;
16468;SDS011;8345;50.902;6.956;2023-05-10T00:09:46;9.00;;;8.10;;
16468;SDS011;8345;50.902;6.956;2023-05-10T00:12:14;8.27;;;7.47;;
16468;SDS011;8345;50.902;6.956;2023-05-10T00:14:41;8.43;;;7.73;;
16468;SDS011;8345;50.902;6.956;2023-05-10T00:17:09;8.43;;;7.73;;
16468;SDS011;8345;50.902;6.956;2023-05-10T00:19:36;9.13;;;8.23;;
16468;SDS011;8345;50.902;6.956;2023-05-10T00:22:04;9.43;;;8.63;;
16468;SDS011;8345;50.902;6.956;2023-05-10T00:24:31;9.50;;;8.70;;
16468;SDS011;8345;50.902;6.956;2023-05-10T00:26:58;9.77;;;8.77;;
16468;SDS011;8345;50.902;6.956;2023-05-10T00:29:25;9.03;;;8.23;;
16468;SDS011;8345;50.902;6.956;2023-05-10T00:31:53;9.27;;;8.47;;
16468;SDS011;8345;50.902;6.956;2023-05-10T00:34:22;9.97;;;9.07;;
16468;SDS011;8345;50.902;6.956;2023-05-10T00:36:49;9.63;;;8.73;;
16468;SDS011;8345;50.902;6.956;2023-05-10T00:39:17;9.50;;;8.50;;
16468;SDS011;8345;50.902;6.956;2023-05-10T00:41:44;9.43;;;8.57;;
16468;SDS011;8345;50.902;6.956;2023-05-10T00:44:11;9.60;;;8.80;;
16468;SDS011;8345;50.902;6.956;2023-05-10T00:46:38;9.53;;;8.70;;
16468;SDS011;8345;50.902;6.956;2023-05-10T00:49:05;9.40;;;8.50;;
16468;SDS011;8345;50.902;6.956;2023-05-10T00:51:34;9.73;;;8.90;;
16468;SDS011;8345;50.902;6.956;2023-05-10T00:54:01;9.23;;;8.33;;
16468;SDS011;8345;50.902;6.956;2023-05-10T00:56:30;9.50;;;8.60;;
16468;SDS011;8345;50.902;6.956;2023-05-10T00:58:57;10.00;;;9.07;;
16468;SDS011;8345;50.902;6.956;2023-05-10T01:01:24;9.37;;;8.57;;
16468;SDS011;8345;50.902;6.956;2023-05-10T01:03:52;9.27;;;8.47;;
16468;SDS011;8345;50.902;6.956;2023-05-10T01:06:20;10.60;;;9.60;;
16468;SDS011;8345;50.902;6.956;2023-05-10T01:08:48;11.27;;;9.97;;
16468;SDS011;8345;50.902;6.956;2023-05-10T01:11:15;11.47;;;10.37;;
16468;SDS011;8345;50.902;6.956;2023-05-10T01:13:43;12.33;;;11.23;;
16468;SDS011;8345;50.902;6.956;2023-05-10T01:16:10;12.53;;;11.30;;
16468;SDS011;8345;50.902;6.956;2023-05-10T01:18:38;11.50;;;10.40;;
16468;SDS011;8345;50.902;6.956;2023-05-10T01:21:09;12.77;;;11.50;;
16468;SDS011;8345;50.902;6.956;2023-05-10T01:23:45;12.47;;;11.27;;
16468;SDS011;8345;50.902;6.956;2023-05-10T01:26:30;12.27;;;11.10;;
16468;SDS011;8345;50.902;6.956;2023-05-10T01:29:18;12.60;;;11.40;;
16468;SDS011;8345;50.902;6.956;2023-05-10T01:34:53;12.43;;;11.33;;
16468;SDS011;8345;50.902;6.956;2023-05-10T01:37:21;12.57;;;11.33;;
16468;SDS011;8345;50.902;6.956;2023-05-10T01:39:54;14.00;;;12.60;;
16468;SDS011;8345;50.902;6.956;2023-05-10T01:42:23;12.50;;;11.30;;
16468;SDS011;8345;50.902;6.956;2023-05-10T01:44:54;12.33;;;11.13;;
16468;SDS011;8345;50.902;6.956;2023-05-10T01:47:25;11.93;;;10.83;;
16468;SDS011;8345;50.902;6.956;2023-05-10T01:50:02;12.30;;;11.00;;
16468;SDS011;8345;50.902;6.956;2023-05-10T01:52:32;11.23;;;10.13;;
16468;SDS011;8345;50.902;6.956;2023-05-10T01:55:00;11.63;;;10.53;;
16468;SDS011;8345;50.902;6.956;2023-05-10T01:57:31;11.30;;;10.20;;
16468;SDS011;8345;50.902;6.956;2023-05-10T01:59:59;11.07;;;10.07;;
16468;SDS011;8345;50.902;6.956;2023-05-10T02:02:28;11.50;;;10.40;;
16468;SDS011;8345;50.902;6.956;2023-05-10T02:04:57;10.30;;;9.30;;
16468;SDS011;8345;50.902;6.956;2023-05-10T02:07:26;10.53;;;9.53;;
16468;SDS011;8345;50.902;6.956;2023-05-10T02:09:53;10.27;;;9.23;;
16468;SDS011;8345;50.902;6.956;2023-05-10T02:12:22;10.27;;;9.27;;
16468;SDS011;8345;50.902;6.956;2023-05-10T02:14:50;10.77;;;9.37;;
16468;SDS011;8345;50.902;6.956;2023-05-10T02:17:17;9.60;;;8.70;;
16468;SDS011;8345;50.902;6.956;2023-05-10T02:19:45;10.33;;;9.30;;
16468;SDS011;8345;50.902;6.956;2023-05-10T02:22:14;10.03;;;9.03;;
16468;SDS011;8345;50.902;6.956;2023-05-10T02:24:43;9.50;;;8.53;;
16468;SDS011;8345;50.902;6.956;2023-05-10T02:27:11;11.00;;;8.90;;
16468;SDS011;8345;50.902;6.956;2023-05-10T02:29:39;9.53;;;8.63;;
16468;SDS011;8345;50.902;6.956;2023-05-10T02:32:06;9.63;;;8.73;;
16468;SDS011;8345;50.902;6.956;2023-05-10T02:34:36;9.13;;;8.27;;
16468;SDS011;8345;50.902;6.956;2023-05-10T02:37:05;10.10;;;8.43;;
16468;SDS011;8345;50.902;6.956;2023-05-10T02:39:32;10.63;;;9.23;;
16468;SDS011;8345;50.902;6.956;2023-05-10T02:42:01;10.63;;;9.63;;
16468;SDS011;8345;50.902;6.956;2023-05-10T02:44:28;9.17;;;8.10;;
16468;SDS011;8345;50.902;6.956;2023-05-10T02:46:57;8.70;;;7.90;;
16468;SDS011;8345;50.902;6.956;2023-05-10T02:49:25;9.70;;;8.70;;
16468;SDS011;8345;50.902;6.956;2023-05-10T02:51:55;9.97;;;9.07;;
16468;SDS011;8345;50.902;6.956;2023-05-10T02:54:24;10.27;;;9.17;;
16468;SDS011;8345;50.902;6.956;2023-05-10T02:56:59;10.53;;;9.53;;
16468;SDS011;8345;50.902;6.956;2023-05-10T02:59:29;10.27;;;9.17;;
16468;SDS011;8345;50.902;6.956;2023-05-10T03:01:57;10.00;;;9.00;;
16468;SDS011;8345;50.902;6.956;2023-05-10T03:04:25;9.60;;;8.70;;
16468;SDS011;8345;50.902;6.956;2023-05-10T03:06:52;9.40;;;8.50;;
16468;SDS011;8345;50.902;6.956;2023-05-10T03:09:19;9.60;;;8.67;;
16468;SDS011;8345;50.902;6.956;2023-05-10T03:11:48;9.40;;;8.47;;
16468;SDS011;8345;50.902;6.956;2023-05-10T03:14:21;9.37;;;8.47;;
16468;SDS011;8345;50.902;6.956;2023-05-10T03:16:52;8.53;;;7.73;;
16468;SDS011;8345;50.902;6.956;2023-05-10T03:19:24;8.13;;;7.33;;
16468;SDS011;8345;50.902;6.956;2023-05-10T03:21:53;8.37;;;7.57;;
16468;SDS011;8345;50.902;6.956;2023-05-10T03:24:21;8.33;;;7.60;;
16468;SDS011;8345;50.902;6.956;2023-05-10T03:26:50;8.77;;;7.67;;
16468;SDS011;8345;50.902;6.956;2023-05-10T03:29:18;7.90;;;7.20;;
16468;SDS011;8345;50.902;6.956;2023-05-10T03:31:46;7.87;;;7.17;;
16468;SDS011;8345;50.902;6.956;2023-05-10T03:34:15;8.73;;;7.77;;
16468;SDS011;8345;50.902;6.956;2023-05-10T03:36:42;9.13;;;8.10;;
16468;SDS011;8345;50.902;6.956;2023-05-10T03:39:09;8.67;;;7.87;;
16468;SDS011;8345;50.902;6.956;2023-05-10T03:41:37;9.23;;;8.33;;
16468;SDS011;8345;50.902;6.956;2023-05-10T03:44:04;8.87;;;8.07;;
16468;SDS011;8345;50.902;6.956;2023-05-10T03:46:31;9.57;;;8.57;;
16468;SDS011;8345;50.902;6.956;2023-05-10T03:48:58;10.27;;;9.27;;
16468;SDS011;8345;50.902;6.956;2023-05-10T03:51:27;10.73;;;9.20;;
16468;SDS011;8345;50.902;6.956;2023-05-10T03:53:56;9.97;;;9.03;;
16468;SDS011;8345;50.902;6.956;2023-05-10T03:56:23;10.27;;;9.27;;
16468;SDS011;8345;50.902;6.956;2023-05-10T03:58:50;9.70;;;8.70;;
16468;SDS011;8345;50.902;6.956;2023-05-10T04:01:17;9.70;;;8.80;;
16468;SDS011;8345;50.902;6.956;2023-05-10T04:03:45;9.53;;;8.60;;
16468;SDS011;8345;50.902;6.956;2023-05-10T04:06:12;9.70;;;8.70;;
16468;SDS011;8345;50.902;6.956;2023-05-10T04:08:40;10.43;;;9.40;;
16468;SDS011;8345;50.902;6.956;2023-05-10T04:11:08;10.13;;;8.17;;
16468;SDS011;8345;50.902;6.956;2023-05-10T04:13:35;9.83;;;8.87;;
16468;SDS011;8345;50.902;6.956;2023-05-10T04:16:03;9.37;;;8.37;;
16468;SDS011;8345;50.902;6.956;2023-05-10T04:18:30;9.63;;;8.73;;
16468;SDS011;8345;50.902;6.956;2023-05-10T04:20:57;11.43;;;10.00;;
16468;SDS011;8345;50.902;6.956;2023-05-10T04:23:25;10.63;;;9.37;;
16468;SDS011;8345;50.902;6.956;2023-05-10T04:25:53;12.83;;;9.87;;
16468;SDS011;8345;50.902;6.956;2023-05-10T04:28:25;11.03;;;9.93;;
16468;SDS011;8345;50.902;6.956;2023-05-10T04:30:52;10.33;;;9.37;;
16468;SDS011;8345;50.902;6.956;2023-05-10T04:33:19;11.53;;;10.27;;
16468;SDS011;8345;50.902;6.956;2023-05-10T04:35:47;12.13;;;10.80;;
16468;SDS011;8345;50.902;6.956;2023-05-10T04:38:14;12.87;;;11.37;;
16468;SDS011;8345;50.902;6.956;2023-05-10T04:40:41;15.47;;;13.37;;
16468;SDS011;8345;50.902;6.956;2023-05-10T04:43:09;14.23;;;12.43;;
16468;SDS011;8345;50.902;6.956;2023-05-10T04:45:37;13.87;;;12.40;;
16468;SDS011;8345;50.902;6.956;2023-05-10T04:48:04;13.50;;;12.07;;
16468;SDS011;8345;50.902;6.956;2023-05-10T04:50:32;13.53;;;12.17;;
16468;SDS011;8345;50.902;6.956;2023-05-10T04:52:59;13.00;;;11.57;;
16468;SDS011;8345;50.902;6.956;2023-05-10T04:55:26;13.47;;;12.07;;
16468;SDS011;8345;50.902;6.956;2023-05-10T04:57:54;13.77;;;12.03;;
16468;SDS011;8345;50.902;6.956;2023-05-10T05:00:23;12.67;;;11.30;;
16468;SDS011;8345;50.902;6.956;2023-05-10T05:02:50;15.53;;;13.00;;
16468;SDS011;8345;50.902;6.956;2023-05-10T05:05:18;13.70;;;12.30;;
16468;SDS011;8345;50.902;6.956;2023-05-10T05:07:45;15.33;;;11.47;;
16468;SDS011;8345;50.902;6.956;2023-05-10T05:10:12;12.90;;;11.50;;
16468;SDS011;8345;50.902;6.956;2023-05-10T05:12:45;15.03;;;13.03;;
16468;SDS011;8345;50.902;6.956;2023-05-10T05:15:16;14.90;;;12.17;;
16468;SDS011;8345;50.902;6.956;2023-05-10T05:17:45;14.30;;;12.57;;
16468;SDS011;8345;50.902;6.956;2023-05-10T05:20:12;14.20;;;12.67;;
16468;SDS011;8345;50.902;6.956;2023-05-10T05:22:39;14.73;;;13.00;;
16468;SDS011;8345;50.902;6.956;2023-05-10T05:25:06;15.13;;;13.27;;
16468;SDS011;8345;50.902;6.956;2023-05-10T05:27:34;14.07;;;12.67;;
16468;SDS011;8345;50.902;6.956;2023-05-10T05:30:01;15.07;;;13.47;;
16468;SDS011;8345;50.902;6.956;2023-05-10T05:32:29;18.30;;;13.67;;
16468;SDS011;8345;50.902;6.956;2023-05-10T05:34:57;16.43;;;13.07;;
16468;SDS011;8345;50.902;6.956;2023-05-10T05:37:25;18.17;;;14.57;;
16468;SDS011;8345;50.902;6.956;2023-05-10T05:39:52;15.30;;;13.00;;
16468;SDS011;8345;50.902;6.956;2023-05-10T05:42:20;16.40;;;13.70;;
16468;SDS011;8345;50.902;6.956;2023-05-10T05:44:47;15.13;;;13.00;;
16468;SDS011;8345;50.902;6.956;2023-05-10T05:47:14;14.37;;;12.50;;
16468;SDS011;8345;50.902;6.956;2023-05-10T05:49:41;13.93;;;12.23;;
16468;SDS011;8345;50.902;6.956;2023-05-10T05:52:12;14.43;;;12.70;;
16468;SDS011;8345;50.902;6.956;2023-05-10T05:54:39;16.00;;;13.13;;
16468;SDS011;8345;50.902;6.956;2023-05-10T05:57:06;15.60;;;12.80;;
16468;SDS011;8345;50.902;6.956;2023-05-10T05:59:34;15.03;;;12.97;;
16468;SDS011;8345;50.902;6.956;2023-05-10T06:02:01;18.97;;;13.73;;
16468;SDS011;8345;50.902;6.956;2023-05-10T06:04:28;18.03;;;12.73;;
16468;SDS011;8345;50.902;6.956;2023-05-10T06:06:55;14.07;;;12.53;;
16468;SDS011;8345;50.902;6.956;2023-05-10T06:09:24;17.27;;;12.90;;
16468;SDS011;8345;50.902;6.956;2023-05-10T06:11:51;16.83;;;13.17;;
16468;SDS011;8345;50.902;6.956;2023-05-10T06:14:19;16.63;;;13.67;;
16468;SDS011;8345;50.902;6.956;2023-05-10T06:16:47;15.03;;;12.50;;
16468;SDS011;8345;50.902;6.956;2023-05-10T06:19:15;16.47;;;13.70;;
16468;SDS011;8345;50.902;6.956;2023-05-10T06:21:42;13.33;;;11.93;;
16468;SDS011;8345;50.902;6.956;2023-05-10T06:24:09;14.07;;;12.43;;
16468;SDS011;8345;50.902;6.956;2023-05-10T06:26:38;15.60;;;12.43;;
16468;SDS011;8345;50.902;6.956;2023-05-10T06:29:05;13.50;;;12.10;;
16468;SDS011;8345;50.902;6.956;2023-05-10T06:31:32;15.27;;;12.53;;
16468;SDS011;8345;50.902;6.956;2023-05-10T06:33:59;14.67;;;12.53;;
16468;SDS011;8345;50.902;6.956;2023-05-10T06:36:27;15.13;;;12.50;;
16468;SDS011;8345;50.902;6.956;2023-05-10T06:38:54;14.37;;;12.50;;
16468;SDS011;8345;50.902;6.956;2023-05-10T06:41:21;14.00;;;12.47;;
16468;SDS011;8345;50.902;6.956;2023-05-10T06:43:50;14.03;;;12.50;;
16468;SDS011;8345;50.902;6.956;2023-05-10T06:46:17;14.67;;;13.20;;
16468;SDS011;8345;50.902;6.956;2023-05-10T06:48:44;14.43;;;12.90;;
16468;SDS011;8345;50.902;6.956;2023-05-10T06:51:11;14.63;;;13.13;;
16468;SDS011;8345;50.902;6.956;2023-05-10T06:53:39;14.70;;;13.20;;
16468;SDS011;8345;50.902;6.956;2023-05-10T06:56:06;15.73;;;13.10;;
16468;SDS011;8345;50.902;6.956;2023-05-10T06:58:33;14.53;;;13.03;;
16468;SDS011;8345;50.902;6.956;2023-05-10T07:01:04;14.20;;;12.53;;
16468;SDS011;8345;50.902;6.956;2023-05-10T07:03:32;18.77;;;12.43;;
16468;SDS011;8345;50.902;6.956;2023-05-10T07:06:02;14.07;;;12.67;;
16468;SDS011;8345;50.902;6.956;2023-05-10T07:08:29;14.13;;;12.63;;
16468;SDS011;8345;50.902;6.956;2023-05-10T07:11:00;13.93;;;12.37;;
16468;SDS011;8345;50.902;6.956;2023-05-10T07:13:28;16.97;;;14.23;;
16468;SDS011;8345;50.902;6.956;2023-05-10T07:15:55;15.53;;;12.97;;
16468;SDS011;8345;50.902;6.956;2023-05-10T07:18:24;15.50;;;13.43;;
16468;SDS011;8345;50.902;6.956;2023-05-10T07:20:51;16.13;;;12.73;;
16468;SDS011;8345;50.902;6.956;2023-05-10T07:23:18;15.63;;;13.17;;
16468;SDS011;8345;50.902;6.956;2023-05-10T07:25:46;16.30;;;13.20;;
16468;SDS011;8345;50.902;6.956;2023-05-10T07:28:13;16.03;;;13.33;;
16468;SDS011;8345;50.902;6.956;2023-05-10T07:30:41;16.37;;;13.03;;
16468;SDS011;8345;50.902;6.956;2023-05-10T07:33:08;14.57;;;13.00;;
16468;SDS011;8345;50.902;6.956;2023-05-10T07:35:37;14.43;;;11.80;;
16468;SDS011;8345;50.902;6.956;2023-05-10T07:38:04;14.03;;;12.20;;
16468;SDS011;8345;50.902;6.956;2023-05-10T07:40:32;13.47;;;11.43;;
16468;SDS011;8345;50.902;6.956;2023-05-10T07:42:59;16.10;;;11.83;;
16468;SDS011;8345;50.902;6.956;2023-05-10T07:45:27;17.63;;;12.77;;
16468;SDS011;8345;50.902;6.956;2023-05-10T07:47:54;14.20;;;12.33;;
16468;SDS011;8345;50.902;6.956;2023-05-10T07:50:21;14.43;;;11.97;;
16468;SDS011;8345;50.902;6.956;2023-05-10T07:52:50;13.77;;;11.30;;
16468;SDS011;8345;50.902;6.956;2023-05-10T07:55:18;15.87;;;11.93;;
16468;SDS011;8345;50.902;6.956;2023-05-10T07:57:46;14.33;;;11.30;;
16468;SDS011;8345;50.902;6.956;2023-05-10T08:00:13;13.93;;;10.67;;
16468;SDS011;8345;50.902;6.956;2023-05-10T08:02:43;15.33;;;11.27;;
16468;SDS011;8345;50.902;6.956;2023-05-10T08:05:10;16.00;;;10.73;;
16468;SDS011;8345;50.902;6.956;2023-05-10T08:07:38;14.00;;;11.03;;
16468;SDS011;8345;50.902;6.956;2023-05-10T08:10:08;11.97;;;10.73;;
16468;SDS011;8345;50.902;6.956;2023-05-10T08:12:36;11.50;;;9.40;;
16468;SDS011;8345;50.902;6.956;2023-05-10T08:15:04;10.23;;;8.67;;
16468;SDS011;8345;50.902;6.956;2023-05-10T08:17:31;11.83;;;8.20;;
16468;SDS011;8345;50.902;6.956;2023-05-10T08:19:58;8.57;;;7.67;;
16468;SDS011;8345;50.902;6.956;2023-05-10T08:22:26;9.10;;;8.00;;
16468;SDS011;8345;50.902;6.956;2023-05-10T08:24:53;9.43;;;8.03;;
16468;SDS011;8345;50.902;6.956;2023-05-10T08:27:21;8.90;;;6.83;;
16468;SDS011;8345;50.902;6.956;2023-05-10T08:29:48;10.13;;;7.30;;
16468;SDS011;8345;50.902;6.956;2023-05-10T08:32:16;8.43;;;7.30;;
16468;SDS011;8345;50.902;6.956;2023-05-10T08:34:43;9.77;;;6.47;;
16468;SDS011;8345;50.902;6.956;2023-05-10T08:37:10;8.67;;;7.00;;
16468;SDS011;8345;50.902;6.956;2023-05-10T08:39:38;6.80;;;6.10;;
16468;SDS011;8345;50.902;6.956;2023-05-10T08:42:05;6.77;;;4.60;;
16468;SDS011;8345;50.902;6.956;2023-05-10T08:44:35;4.50;;;4.10;;
16468;SDS011;8345;50.902;6.956;2023-05-10T08:47:04;4.23;;;3.83;;
16468;SDS011;8345;50.902;6.956;2023-05-10T08:49:32;4.50;;;4.10;;
16468;SDS011;8345;50.902;6.956;2023-05-10T08:52:00;5.77;;;3.80;;
16468;SDS011;8345;50.902;6.956;2023-05-10T08:54:29;4.33;;;3.93;;
16468;SDS011;8345;50.902;6.956;2023-05-10T08:56:56;4.90;;;4.17;;
16468;SDS011;8345;50.902;6.956;2023-05-10T08:59:24;8.67;;;6.67;;
16468;SDS011;8345;50.902;6.956;2023-05-10T09:01:52;6.67;;;5.70;;
16468;SDS011;8345;50.902;6.956;2023-05-10T09:04:21;7.90;;;7.20;;
16468;SDS011;8345;50.902;6.956;2023-05-10T09:06:48;9.33;;;6.57;;
16468;SDS011;8345;50.902;6.956;2023-05-10T09:09:15;7.50;;;6.40;;
16468;SDS011;8345;50.902;6.956;2023-05-10T09:11:43;6.87;;;5.87;;
16468;SDS011;8345;50.902;6.956;2023-05-10T09:14:11;6.90;;;6.27;;
16468;SDS011;8345;50.902;6.956;2023-05-10T09:16:39;6.93;;;6.27;;
16468;SDS011;8345;50.902;6.956;2023-05-10T09:19:08;6.80;;;6.20;;
16468;SDS011;8345;50.902;6.956;2023-05-10T09:21:36;6.57;;;5.80;;
16468;SDS011;8345;50.902;6.956;2023-05-10T09:24:03;6.60;;;5.97;;
16468;SDS011;8345;50.902;6.956;2023-05-10T09:26:31;6.10;;;5.50;;
16468;SDS011;8345;50.902;6.956;2023-05-10T09:28:59;6.37;;;5.23;;
16468;SDS011;8345;50.902;6.956;2023-05-10T09:34:11;5.23;;;4.77;;
16468;SDS011;8345;50.902;6.956;2023-05-10T09:36:49;4.50;;;4.10;;
16468;SDS011;8345;50.902;6.956;2023-05-10T09:39:16;4.90;;;4.30;;
16468;SDS011;8345;50.902;6.956;2023-05-10T09:41:44;5.80;;;4.00;;
16468;SDS011;8345;50.902;6.956;2023-05-10T09:44:11;4.07;;;3.73;;
16468;SDS011;8345;50.902;6.956;2023-05-10T09:46:38;3.83;;;3.43;;
16468;SDS011;8345;50.902;6.956;2023-05-10T09:49:05;5.00;;;4.50;;
16468;SDS011;8345;50.902;6.956;2023-05-10T09:51:34;6.20;;;5.60;;
16468;SDS011;8345;50.902;6.956;2023-05-10T09:54:09;7.90;;;6.87;;
16468;SDS011;8345;50.902;6.956;2023-05-10T09:56:36;11.47;;;8.20;;
16468;SDS011;8345;50.902;6.956;2023-05-10T09:59:05;11.73;;;9.03;;
16468;SDS011;8345;50.902;6.956;2023-05-10T10:01:33;12.33;;;9.30;;
16468;SDS011;8345;50.902;6.956;2023-05-10T10:04:01;12.03;;;9.73;;
16468;SDS011;8345;50.902;6.956;2023-05-10T10:06:29;12.80;;;9.90;;
16468;SDS011;8345;50.902;6.956;2023-05-10T10:08:58;12.10;;;8.83;;
16468;SDS011;8345;50.902;6.956;2023-05-10T10:11:25;9.23;;;8.23;;
16468;SDS011;8345;50.902;6.956;2023-05-10T10:13:52;9.57;;;7.70;;
16468;SDS011;8345;50.902;6.956;2023-05-10T10:16:20;9.00;;;6.90;;
16468;SDS011;8345;50.902;6.956;2023-05-10T10:18:47;7.63;;;6.87;;
16468;SDS011;8345;50.902;6.956;2023-05-10T10:21:14;8.03;;;6.87;;
16468;SDS011;8345;50.902;6.956;2023-05-10T10:23:42;7.80;;;7.00;;
16468;SDS011;8345;50.902;6.956;2023-05-10T10:26:11;8.10;;;6.73;;
16468;SDS011;8345;50.902;6.956;2023-05-10T10:28:39;9.03;;;6.33;;
16468;SDS011;8345;50.902;6.956;2023-05-10T10:31:13;6.87;;;6.10;;
16468;SDS011;8345;50.902;6.956;2023-05-10T10:33:51;7.47;;;6.00;;
16468;SDS011;8345;50.902;6.956;2023-05-10T10:36:21;6.67;;;5.60;;
16468;SDS011;8345;50.902;6.956;2023-05-10T10:38:55;7.37;;;6.17;;
16468;SDS011;8345;50.902;6.956;2023-05-10T10:41:29;8.07;;;6.10;;
16468;SDS011;8345;50.902;6.956;2023-05-10T10:49:25;9.00;;;6.90;;
16468;SDS011;8345;50.902;6.956;2023-05-10T10:54:57;8.30;;;7.03;;
16468;SDS011;8345;50.902;6.956;2023-05-10T10:57:27;8.67;;;6.97;;
16468;SDS011;8345;50.902;6.956;2023-05-10T11:02:44;5.70;;;5.13;;
16468;SDS011;8345;50.902;6.956;2023-05-10T11:05:33;6.07;;;5.20;;
16468;SDS011;8345;50.902;6.956;2023-05-10T11:08:01;5.57;;;5.07;;
16468;SDS011;8345;50.902;6.956;2023-05-10T11:10:33;5.33;;;4.83;;
16468;SDS011;8345;50.902;6.956;2023-05-10T11:13:02;5.63;;;4.83;;
16468;SDS011;8345;50.902;6.956;2023-05-10T11:15:29;5.87;;;4.93;;
16468;SDS011;8345;50.902;6.956;2023-05-10T11:17:56;5.77;;;4.67;;
16468;SDS011;8345;50.902;6.956;2023-05-10T11:20:24;4.53;;;4.13;;
16468;SDS011;8345;50.902;6.956;2023-05-10T11:22:58;3.90;;;3.27;;
16468;SDS011;8345;50.902;6.956;2023-05-10T11:25:26;3.60;;;3.30;;
16468;SDS011;8345;50.902;6.956;2023-05-10T11:27:54;4.70;;;3.27;;
16468;SDS011;8345;50.902;6.956;2023-05-10T11:30:23;3.30;;;3.00;;
16468;SDS011;8345;50.902;6.956;2023-05-10T11:32:50;3.73;;;3.33;;
16468;SDS011;8345;50.902;6.956;2023-05-10T11:35:17;3.57;;;3.17;;
16468;SDS011;8345;50.902;6.956;2023-05-10T11:37:47;3.47;;;3.17;;
16468;SDS011;8345;50.902;6.956;2023-05-10T11:40:15;3.83;;;2.93;;
16468;SDS011;8345;50.902;6.956;2023-05-10T11:42:42;4.00;;;2.80;;
16468;SDS011;8345;50.902;6.956;2023-05-10T11:45:09;4.97;;;4.50;;
16468;SDS011;8345;50.902;6.956;2023-05-10T11:47:38;3.40;;;2.70;;
16468;SDS011;8345;50.902;6.956;2023-05-10T11:50:08;3.40;;;2.77;;
16468;SDS011;8345;50.902;6.956;2023-05-10T11:52:35;2.67;;;2.47;;
16468;SDS011;8345;50.902;6.956;2023-05-10T11:55:03;2.37;;;2.17;;
16468;SDS011;8345;50.902;6.956;2023-05-10T11:57:30;2.97;;;2.43;;
16468;SDS011;8345;50.902;6.956;2023-05-10T11:59:58;2.97;;;2.77;;
16468;SDS011;8345;50.902;6.956;2023-05-10T12:02:25;2.47;;;2.27;;
16468;SDS011;8345;50.902;6.956;2023-05-10T12:04:54;2.53;;;2.20;;
16468;SDS011;8345;50.902;6.956;2023-05-10T12:07:21;2.20;;;2.00;;
16468;SDS011;8345;50.902;6.956;2023-05-10T12:10:05;1.90;;;1.80;;
16468;SDS011;8345;50.902;6.956;2023-05-10T12:12:39;2.13;;;1.93;;
16468;SDS011;8345;50.902;6.956;2023-05-10T12:15:10;2.23;;;2.03;;
16468;SDS011;8345;50.902;6.956;2023-05-10T12:17:37;1.93;;;1.83;;
16468;SDS011;8345;50.902;6.956;2023-05-10T12:20:16;2.00;;;1.90;;
16468;SDS011;8345;50.902;6.956;2023-05-10T12:22:45;3.40;;;2.10;;
16468;SDS011;8345;50.902;6.956;2023-05-10T12:25:12;2.10;;;2.00;;
16468;SDS011;8345;50.902;6.956;2023-05-10T12:27:39;2.20;;;1.97;;
16468;SDS011;8345;50.902;6.956;2023-05-10T12:30:07;2.10;;;1.90;;
16468;SDS011;8345;50.902;6.956;2023-05-10T12:32:37;2.23;;;2.13;;
16468;SDS011;8345;50.902;6.956;2023-05-10T12:35:06;2.30;;;2.10;;
16468;SDS011;8345;50.902;6.956;2023-05-10T12:37:34;3.00;;;2.40;;
16468;SDS011;8345;50.902;6.956;2023-05-10T12:40:05;2.90;;;2.40;;
16468;SDS011;8345;50.902;6.956;2023-05-10T12:42:33;2.33;;;2.13;;
16468;SDS011;8345;50.902;6.956;2023-05-10T12:45:00;1.53;;;1.40;;
16468;SDS011;8345;50.902;6.956;2023-05-10T12:47:27;1.10;;;1.00;;
16468;SDS011;8345;50.902;6.956;2023-05-10T12:49:54;1.73;;;1.37;;
16468;SDS011;8345;50.902;6.956;2023-05-10T12:52:22;1.47;;;1.37;;
16468;SDS011;8345;50.902;6.956;2023-05-10T12:54:50;1.47;;;1.30;;
16468;SDS011;8345;50.902;6.956;2023-05-10T12:57:17;1.83;;;1.53;;
16468;SDS011;8345;50.902;6.956;2023-05-10T12:59:45;1.60;;;1.50;;
16468;SDS011;8345;50.902;6.956;2023-05-10T13:02:12;2.13;;;1.93;;
16468;SDS011;8345;50.902;6.956;2023-05-10T13:04:39;1.80;;;1.70;;
16468;SDS011;8345;50.902;6.956;2023-05-10T13:07:06;2.37;;;1.80;;
16468;SDS011;8345;50.902;6.956;2023-05-10T13:09:34;2.00;;;1.90;;
16468;SDS011;8345;50.902;6.956;2023-05-10T13:12:02;1.83;;;1.73;;
16468;SDS011;8345;50.902;6.956;2023-05-10T13:14:31;2.20;;;2.00;;
16468;SDS011;8345;50.902;6.956;2023-05-10T13:16:58;2.10;;;2.00;;
16468;SDS011;8345;50.902;6.956;2023-05-10T13:19:25;1.70;;;1.60;;
16468;SDS011;8345;50.902;6.956;2023-05-10T13:21:52;1.90;;;1.50;;
16468;SDS011;8345;50.902;6.956;2023-05-10T13:24:19;2.27;;;1.80;;
16468;SDS011;8345;50.902;6.956;2023-05-10T13:26:47;1.80;;;1.70;;
16468;SDS011;8345;50.902;6.956;2023-05-10T13:29:15;2.00;;;1.80;;
16468;SDS011;8345;50.902;6.956;2023-05-10T13:31:43;2.57;;;1.50;;
16468;SDS011;8345;50.902;6.956;2023-05-10T13:34:10;1.87;;;1.77;;
16468;SDS011;8345;50.902;6.956;2023-05-10T13:36:37;1.93;;;1.83;;
16468;SDS011;8345;50.902;6.956;2023-05-10T13:39:04;1.80;;;1.70;;
16468;SDS011;8345;50.902;6.956;2023-05-10T13:41:31;1.30;;;1.20;;
16468;SDS011;8345;50.902;6.956;2023-05-10T13:43:59;1.60;;;1.50;;
16468;SDS011;8345;50.902;6.956;2023-05-10T13:46:28;2.20;;;1.20;;
16468;SDS011;8345;50.902;6.956;2023-05-10T13:48:55;1.27;;;1.17;;
16468;SDS011;8345;50.902;6.956;2023-05-10T13:51:22;1.83;;;1.30;;
16468;SDS011;8345;50.902;6.956;2023-05-10T13:53:50;1.10;;;1.00;;
16468;SDS011;8345;50.902;6.956;2023-05-10T13:56:17;1.70;;;0.90;;
16468;SDS011;8345;50.902;6.956;2023-05-10T13:58:44;1.90;;;1.10;;
16468;SDS011;8345;50.902;6.956;2023-05-10T14:01:11;1.80;;;1.17;;
16468;SDS011;8345;50.902;6.956;2023-05-10T14:03:40;2.40;;;1.00;;
16468;SDS011;8345;50.902;6.956;2023-05-10T14:06:07;1.90;;;1.33;;
16468;SDS011;8345;50.902;6.956;2023-05-10T14:08:35;1.37;;;1.27;;
16468;SDS011;8345;50.902;6.956;2023-05-10T14:11:02;2.00;;;1.53;;
16468;SDS011;8345;50.902;6.956;2023-05-10T14:13:29;2.40;;;1.60;;
16468;SDS011;8345;50.902;6.956;2023-05-10T14:15:56;1.97;;;1.50;;
16468;SDS011;8345;50.902;6.956;2023-05-10T14:18:25;1.37;;;1.10;;
16468;SDS011;8345;50.902;6.956;2023-05-10T14:20:54;1.87;;;1.10;;
16468;SDS011;8345;50.902;6.956;2023-05-10T14:23:22;2.27;;;1.20;;
16468;SDS011;8345;50.902;6.956;2023-05-10T14:25:50;1.93;;;1.53;;
16468;SDS011;8345;50.902;6.956;2023-05-10T14:28:18;2.03;;;1.37;;
16468;SDS011;8345;50.902;6.956;2023-05-10T14:30:46;1.63;;;1.10;;
16468;SDS011;8345;50.902;6.956;2023-05-10T14:33:13;2.40;;;1.23;;
16468;SDS011;8345;50.902;6.956;2023-05-10T14:35:40;1.57;;;1.20;;
16468;SDS011;8345;50.902;6.956;2023-05-10T14:38:08;1.03;;;1.03;;
16468;SDS011;8345;50.902;6.956;2023-05-10T14:40:37;1.60;;;1.13;;
16468;SDS011;8345;50.902;6.956;2023-05-10T14:43:04;2.03;;;1.30;;
16468;SDS011;8345;50.902;6.956;2023-05-10T14:45:31;1.90;;;1.60;;
16468;SDS011;8345;50.902;6.956;2023-05-10T14:47:58;2.20;;;1.27;;
16468;SDS011;8345;50.902;6.956;2023-05-10T14:50:26;1.00;;;1.00;;
16468;SDS011;8345;50.902;6.956;2023-05-10T14:52:53;1.13;;;1.07;;
16468;SDS011;8345;50.902;6.956;2023-05-10T14:55:22;2.53;;;1.53;;
16468;SDS011;8345;50.902;6.956;2023-05-10T14:57:49;1.20;;;1.10;;
16468;SDS011;8345;50.902;6.956;2023-05-10T15:00:16;1.23;;;1.10;;
16468;SDS011;8345;50.902;6.956;2023-05-10T15:02:44;1.27;;;1.17;;
16468;SDS011;8345;50.902;6.956;2023-05-10T15:05:12;1.70;;;1.30;;
16468;SDS011;8345;50.902;6.956;2023-05-10T15:07:39;1.27;;;1.13;;
16468;SDS011;8345;50.902;6.956;2023-05-10T15:10:08;3.57;;;1.70;;
16468;SDS011;8345;50.902;6.956;2023-05-10T15:12:37;1.43;;;1.30;;
16468;SDS011;8345;50.902;6.956;2023-05-10T15:15:05;3.33;;;1.50;;
16468;SDS011;8345;50.902;6.956;2023-05-10T15:17:32;1.80;;;1.70;;